createdAt,value
2022-09-10T00:01:13.913Z,41.80
2022-09-10T00:04:40.876Z,39.50
2022-09-10T00:08:08.753Z,41.00
2022-09-10T00:11:38.904Z,39.70
2022-09-10T00:15:08.333Z,39.50
2022-09-10T00:18:53.910Z,41.20
2022-09-10T00:22:23.040Z,40.50
2022-09-10T00:26:23.312Z,40.80
2022-09-10T00:29:54.503Z,41.20
2022-09-10T00:33:46.378Z,38.70
2022-09-10T00:37:13.354Z,40.30
2022-09-10T00:40:41.489Z,39.00
2022-09-10T00:44:35.555Z,38.90
2022-09-10T00:48:07.325Z,40.20
2022-09-10T00:51:37.314Z,41.60
2022-09-10T00:55:04.516Z,41.90
2022-09-10T00:58:33.066Z,40.90
2022-09-10T01:02:00.180Z,41.90
2022-09-10T01:05:29.779Z,42.80
2022-09-10T01:08:57.142Z,43.40
2022-09-10T01:12:42.703Z,42.90
2022-09-10T01:16:19.101Z,42.20
2022-09-10T01:20:11.325Z,43.00
2022-09-10T01:24:21.656Z,41.10
2022-09-10T01:27:51.696Z,39.50
2022-09-10T01:31:24.903Z,40.50
2022-09-10T01:34:59.574Z,40.00
2022-09-10T01:38:31.991Z,40.00
2022-09-10T01:42:00.499Z,41.00
2022-09-10T01:45:41.101Z,43.80
2022-09-10T01:49:31.415Z,41.80
2022-09-10T01:53:16.301Z,41.40
2022-09-10T01:56:49.144Z,40.90
2022-09-10T02:00:22.924Z,43.90
2022-09-10T02:03:59.285Z,41.10
2022-09-10T02:07:28.376Z,42.70
2022-09-10T02:10:57.510Z,43.40
2022-09-10T02:14:27.495Z,43.80
2022-09-10T02:18:22.558Z,42.30
2022-09-10T02:21:49.968Z,42.60
2022-09-10T02:25:17.840Z,42.10
2022-09-10T02:28:45.974Z,41.80
2022-09-10T02:32:13.526Z,39.80
2022-09-10T02:35:40.597Z,40.10
2022-09-10T02:39:08.381Z,40.10
2022-09-10T02:42:35.284Z,39.10
2022-09-10T02:46:02.634Z,39.10
2022-09-10T02:49:29.785Z,39.40
2022-09-10T02:52:58.225Z,37.30
2022-09-10T02:56:25.462Z,37.30
2022-09-10T02:59:54.124Z,37.10
2022-09-10T03:03:23.951Z,37.50
2022-09-10T03:06:51.997Z,36.80
2022-09-10T03:10:20.800Z,37.90
2022-09-10T03:13:48.206Z,36.60
2022-09-10T03:17:14.953Z,34.40
2022-09-10T03:20:42.109Z,33.60
2022-09-10T03:24:10.605Z,31.90
2022-09-10T03:27:38.628Z,34.10
2022-09-10T03:31:08.883Z,34.80
2022-09-10T03:34:40.725Z,34.70
2022-09-10T03:38:07.435Z,35.30
2022-09-10T03:41:35.343Z,36.30
2022-09-10T03:45:02.232Z,37.00
2022-09-10T03:48:31.015Z,36.60
2022-09-10T03:51:58.152Z,35.40
2022-09-10T03:55:26.182Z,34.10
2022-09-10T03:58:53.535Z,33.10
2022-09-10T04:02:20.716Z,31.40
2022-09-10T04:05:49.164Z,32.20
2022-09-10T04:09:18.438Z,29.90
2022-09-10T04:12:46.002Z,28.40
2022-09-10T04:16:13.459Z,27.60
2022-09-10T04:19:41.030Z,25.60
2022-09-10T04:23:08.121Z,26.80
2022-09-10T04:26:37.154Z,24.90
2022-09-10T04:30:06.635Z,24.50
2022-09-10T04:33:34.779Z,24.10
2022-09-10T04:37:02.137Z,23.60
2022-09-10T04:40:31.800Z,23.50
2022-09-10T04:43:58.660Z,23.30
2022-09-10T04:47:25.258Z,22.60
2022-09-10T04:51:14.670Z,21.80
2022-09-10T04:54:43.411Z,21.90
2022-09-10T04:58:10.992Z,20.70
2022-09-10T05:01:39.167Z,21.80
2022-09-10T05:05:07.260Z,19.30
2022-09-10T05:08:35.137Z,18.80
2022-09-10T05:12:02.999Z,17.60
2022-09-10T05:15:30.165Z,17.40
2022-09-10T05:18:57.596Z,16.50
2022-09-10T05:22:29.979Z,18.20
2022-09-10T05:26:02.431Z,20.00
2022-09-10T05:29:30.094Z,20.20
2022-09-10T05:33:00.069Z,21.50
2022-09-10T05:36:28.345Z,23.50
2022-09-10T05:39:55.531Z,22.70
2022-09-10T05:43:22.771Z,23.80
2022-09-10T05:46:50.104Z,23.60
2022-09-10T05:50:18.106Z,22.60
2022-09-10T05:53:45.146Z,23.30
2022-09-10T05:57:12.216Z,23.90
2022-09-10T06:00:38.973Z,24.60
2022-09-10T06:04:08.250Z,25.90
2022-09-10T06:07:37.001Z,25.40
2022-09-10T06:11:10.892Z,26.60
2022-09-10T06:14:42.337Z,27.70
2022-09-10T06:18:11.925Z,26.90
2022-09-10T06:21:39.645Z,29.50
2022-09-10T06:25:12.261Z,28.20
2022-09-10T06:28:41.320Z,31.20
2022-09-10T06:32:09.086Z,31.00
2022-09-10T06:35:37.943Z,31.50
2022-09-10T06:39:07.411Z,32.10
2022-09-10T06:42:48.760Z,32.70
2022-09-10T06:46:54.927Z,33.40
2022-09-10T06:50:12.451Z,34.20
2022-09-10T06:53:42.831Z,33.70
2022-09-10T06:57:11.833Z,34.40
2022-09-10T07:00:39.688Z,34.00
2022-09-10T07:04:09.334Z,34.20
2022-09-10T07:07:36.629Z,31.90
2022-09-10T07:11:07.202Z,33.00
2022-09-10T07:14:35.652Z,32.20
2022-09-10T07:18:07.866Z,31.90
2022-09-10T07:21:38.112Z,30.70
2022-09-10T07:25:09.472Z,31.00
2022-09-10T07:29:08.428Z,29.70
2022-09-10T07:32:37.374Z,29.10
2022-09-10T07:36:14.518Z,28.70
2022-09-10T07:39:41.504Z,28.60
2022-09-10T07:43:10.369Z,28.00
2022-09-10T07:46:38.986Z,26.60
2022-09-10T07:50:11.211Z,25.60
2022-09-10T07:53:42.151Z,24.70
2022-09-10T07:57:18.150Z,22.50
2022-09-10T08:00:44.881Z,22.40
2022-09-10T08:04:11.718Z,22.10
2022-09-10T08:07:39.280Z,21.40
2022-09-10T08:11:27.743Z,17.30
2022-09-10T08:14:58.034Z,18.40
2022-09-10T08:18:25.248Z,16.80
2022-09-10T08:21:53.746Z,15.40
2022-09-10T08:25:27.528Z,15.60
2022-09-10T08:29:03.582Z,15.00
2022-09-10T08:32:31.516Z,15.20
2022-09-10T08:36:00.191Z,16.10
2022-09-10T08:39:28.250Z,17.40
2022-09-10T08:42:57.057Z,18.70
2022-09-10T08:46:28.413Z,19.20
2022-09-10T08:50:00.624Z,18.50
2022-09-10T08:53:34.742Z,19.30
2022-09-10T09:00:33.973Z,19.40
2022-09-10T09:04:13.254Z,18.00
2022-09-10T09:07:51.009Z,17.00
2022-09-10T09:11:28.460Z,17.70
2022-09-10T09:15:09.094Z,18.00
2022-09-10T09:18:55.515Z,16.80
2022-09-10T09:22:29.780Z,17.10
2022-09-10T09:26:00.544Z,16.20
2022-09-10T09:29:35.729Z,15.10
2022-09-10T09:33:14.940Z,16.20
2022-09-10T09:36:45.257Z,18.20
2022-09-10T09:40:22.275Z,19.90
2022-09-10T09:43:59.660Z,20.40
2022-09-10T09:47:27.743Z,20.50
2022-09-10T09:51:01.075Z,20.50
2022-09-10T09:55:03.210Z,20.80
2022-09-10T09:58:41.419Z,21.70
2022-09-10T10:02:21.220Z,21.30
2022-09-10T10:05:51.366Z,24.50
2022-09-10T10:09:28.002Z,23.70
2022-09-10T10:12:56.672Z,22.40
2022-09-10T10:16:34.153Z,21.80
2022-09-10T10:20:04.676Z,23.30
2022-09-10T10:23:54.632Z,21.80
2022-09-10T10:27:24.695Z,21.50
2022-09-10T10:30:57.784Z,20.90
2022-09-10T10:38:40.683Z,23.50
2022-09-10T10:42:14.593Z,21.20
2022-09-10T10:45:52.707Z,23.30
2022-09-10T10:49:32.345Z,21.00
2022-09-10T10:53:16.595Z,22.40
2022-09-10T10:56:53.131Z,21.40
2022-09-10T11:00:21.780Z,21.90
2022-09-10T11:03:56.836Z,22.90
2022-09-10T11:07:30.211Z,22.80
2022-09-10T11:11:02.126Z,22.20
2022-09-10T11:14:36.156Z,22.90
2022-09-10T11:18:11.604Z,20.10
2022-09-10T11:21:44.299Z,20.80
2022-09-10T11:25:21.594Z,21.10
2022-09-10T11:29:05.520Z,19.20
2022-09-10T11:32:49.294Z,20.00
2022-09-10T11:36:25.565Z,19.90
2022-09-10T11:39:57.374Z,21.00
2022-09-10T11:43:44.858Z,21.30
2022-09-10T11:47:17.844Z,18.80
2022-09-10T11:50:57.599Z,21.10
2022-09-10T11:54:30.170Z,20.10
2022-09-10T11:58:06.335Z,19.10
2022-09-10T12:02:02.885Z,19.70
2022-09-10T12:05:44.026Z,18.90
2022-09-10T12:09:19.271Z,20.60
2022-09-10T12:12:50.090Z,18.90
2022-09-10T12:16:35.339Z,18.60
2022-09-10T12:20:06.193Z,18.60
2022-09-10T12:23:40.052Z,18.40
2022-09-10T12:27:10.452Z,17.60
2022-09-10T12:31:04.103Z,17.10
2022-09-10T12:34:31.474Z,17.40
2022-09-10T12:38:50.563Z,18.10
2022-09-10T12:42:37.380Z,17.80
2022-09-10T12:46:29.801Z,16.80
2022-09-10T12:49:59.534Z,17.90
2022-09-10T12:54:11.234Z,17.20
2022-09-10T12:57:45.663Z,18.10
2022-09-10T13:01:25.793Z,18.40
2022-09-10T13:05:07.933Z,18.90
2022-09-10T13:08:42.902Z,19.40
2022-09-10T13:12:27.542Z,20.00
2022-09-10T13:15:56.054Z,19.00
2022-09-10T13:19:50.818Z,18.70
2022-09-10T13:23:25.705Z,18.00
2022-09-10T13:27:03.954Z,17.80
2022-09-10T13:30:32.551Z,17.90
2022-09-10T13:34:28.516Z,17.10
2022-09-10T13:38:30.606Z,16.00
2022-09-10T13:42:13.029Z,15.10
2022-09-10T13:45:51.165Z,14.00
2022-09-10T13:49:29.745Z,13.00
2022-09-10T13:53:00.330Z,13.10
2022-09-10T13:56:32.420Z,14.10
2022-09-10T14:00:08.907Z,12.70
2022-09-10T14:03:39.371Z,11.30
2022-09-10T14:07:13.398Z,10.10
2022-09-10T14:10:51.925Z,8.80
2022-09-10T14:14:24.411Z,7.60
2022-09-10T14:17:58.850Z,7.00
2022-09-10T14:21:28.422Z,7.20
2022-09-10T14:24:57.611Z,7.70
2022-09-10T14:28:30.096Z,7.30
2022-09-10T14:31:57.596Z,7.00
2022-09-10T14:35:46.214Z,8.40
2022-09-10T14:39:21.003Z,8.00
2022-09-10T14:42:49.291Z,7.40
2022-09-10T14:46:51.914Z,5.90
2022-09-10T14:50:38.901Z,6.00
2022-09-10T14:54:12.048Z,5.30
2022-09-10T14:57:41.619Z,4.40
2022-09-10T15:01:10.766Z,4.70
2022-09-10T15:04:39.031Z,4.40
2022-09-10T15:08:11.054Z,4.90
2022-09-10T15:11:42.507Z,4.60
2022-09-10T15:15:17.613Z,4.50
2022-09-10T15:18:45.341Z,5.20
2022-09-10T15:22:23.963Z,5.40
2022-09-10T15:25:55.527Z,5.30
2022-09-10T15:29:23.803Z,7.00
2022-09-10T15:32:54.543Z,6.50
2022-09-10T15:36:23.043Z,6.60
2022-09-10T15:39:51.703Z,7.80
2022-09-10T15:43:20.562Z,8.00
2022-09-10T15:46:48.247Z,7.40
2022-09-10T15:50:16.105Z,8.10
2022-09-10T15:53:43.201Z,9.10
2022-09-10T15:57:12.872Z,9.40
2022-09-10T16:00:39.932Z,9.30
2022-09-10T16:04:07.689Z,8.80
2022-09-10T16:07:34.536Z,7.80
2022-09-10T16:11:10.560Z,7.20
2022-09-10T16:14:44.626Z,7.00
2022-09-10T16:18:13.411Z,6.20
2022-09-10T16:21:42.921Z,6.40
2022-09-10T16:25:12.460Z,5.30
2022-09-10T16:28:39.498Z,4.40
2022-09-10T16:32:07.939Z,3.70
2022-09-10T16:35:39.946Z,3.30
2022-09-10T16:39:12.602Z,3.80
2022-09-10T16:42:39.655Z,4.20
2022-09-10T16:46:09.541Z,4.30
2022-09-10T16:49:37.147Z,4.70
2022-09-10T16:53:03.980Z,4.60
2022-09-10T16:56:33.840Z,5.20
2022-09-10T17:00:03.187Z,6.60
2022-09-10T17:03:31.579Z,5.10
2022-09-10T17:06:59.245Z,4.60
2022-09-10T17:10:27.389Z,4.70
2022-09-10T17:13:57.075Z,4.70
2022-09-10T17:17:24.643Z,5.10
2022-09-10T17:20:54.321Z,5.40
2022-09-10T17:24:23.155Z,4.80
2022-09-10T17:27:50.703Z,4.30
2022-09-10T17:31:17.794Z,3.40
2022-09-10T17:34:44.864Z,3.50
2022-09-10T17:38:14.578Z,4.10
2022-09-10T17:41:41.882Z,4.90
2022-09-10T17:45:11.591Z,5.90
2022-09-10T17:48:39.473Z,6.00
2022-09-10T17:52:06.889Z,7.60
2022-09-10T17:55:35.946Z,7.30
2022-09-10T17:59:07.314Z,7.40
2022-09-10T18:02:34.091Z,7.40
2022-09-10T18:06:06.127Z,9.00
2022-09-10T18:09:33.479Z,9.30
2022-09-10T18:13:01.118Z,9.80
2022-09-10T18:16:30.352Z,10.60
2022-09-10T18:19:59.151Z,11.20
2022-09-10T18:23:26.418Z,9.90
2022-09-10T18:26:57.664Z,10.90
2022-09-10T18:30:26.396Z,12.10
2022-09-10T18:33:54.026Z,13.60
2022-09-10T18:37:21.653Z,14.60
2022-09-10T18:40:49.350Z,16.70
2022-09-10T18:44:22.553Z,17.50
2022-09-10T18:47:50.944Z,18.20
2022-09-10T18:51:22.296Z,17.60
2022-09-10T18:54:49.283Z,16.80
2022-09-10T18:58:21.866Z,16.40
2022-09-10T19:01:51.984Z,16.60
2022-09-10T19:05:20.375Z,17.10
2022-09-10T19:08:54.317Z,17.10
2022-09-10T19:12:22.580Z,18.60
2022-09-10T19:16:00.033Z,17.80
2022-09-10T19:19:31.939Z,18.10
2022-09-10T19:23:00.784Z,18.30
2022-09-10T19:26:30.224Z,19.50
2022-09-10T19:29:58.638Z,20.10
2022-09-10T19:33:27.067Z,20.30
2022-09-10T19:36:57.422Z,19.60
2022-09-10T19:40:24.193Z,22.50
2022-09-10T19:43:54.876Z,21.20
2022-09-10T19:47:30.247Z,19.90
2022-09-10T19:50:57.828Z,20.90
2022-09-10T19:54:31.726Z,22.50
2022-09-10T19:58:00.415Z,25.20
2022-09-10T20:01:32.268Z,25.80
2022-09-10T20:05:01.251Z,24.80
2022-09-10T20:08:30.320Z,25.00
2022-09-10T20:11:57.540Z,24.70
2022-09-10T20:15:25.150Z,25.40
2022-09-10T20:18:51.889Z,25.10
2022-09-10T20:22:20.555Z,23.90
2022-09-10T20:25:50.517Z,23.90
2022-09-10T20:29:20.705Z,22.40
2022-09-10T20:32:47.685Z,22.60
2022-09-10T20:36:19.245Z,23.60
2022-09-10T20:39:48.734Z,23.00
2022-09-10T20:43:16.140Z,21.50
2022-09-10T20:46:46.876Z,23.00
2022-09-10T20:50:18.557Z,22.60
2022-09-10T20:53:53.295Z,22.50
2022-09-10T20:57:25.815Z,21.80
2022-09-10T21:01:00.230Z,19.30
2022-09-10T21:04:29.090Z,20.30
2022-09-10T21:07:57.344Z,20.10
2022-09-10T21:11:25.857Z,19.20
2022-09-10T21:15:00.554Z,19.10
2022-09-10T21:18:33.082Z,26.80
2022-09-10T21:22:08.052Z,21.10
2022-09-10T21:25:51.985Z,23.40
2022-09-10T21:29:28.693Z,27.40
2022-09-10T21:33:01.227Z,26.50
2022-09-10T21:36:37.916Z,27.80
2022-09-10T21:40:08.878Z,27.40
2022-09-10T21:44:02.470Z,28.70
2022-09-10T21:47:29.506Z,23.80
2022-09-10T21:51:04.773Z,26.40
2022-09-10T21:54:32.489Z,24.70
2022-09-10T21:58:00.316Z,23.30
2022-09-10T22:01:30.592Z,20.50
2022-09-10T22:04:58.806Z,20.40
2022-09-10T22:08:27.179Z,19.70
2022-09-10T22:12:00.820Z,18.30
2022-09-10T22:15:29.386Z,18.10
2022-09-10T22:19:00.599Z,17.50
2022-09-10T22:22:28.406Z,16.60
2022-09-10T22:25:55.875Z,16.70
2022-09-10T22:29:25.446Z,17.10
2022-09-10T22:32:54.037Z,16.30
2022-09-10T22:36:25.105Z,18.10
2022-09-10T22:39:52.945Z,17.10
2022-09-10T22:43:19.943Z,16.50
2022-09-10T22:46:48.198Z,15.90
2022-09-10T22:50:16.498Z,15.80
2022-09-10T22:53:45.622Z,16.60
2022-09-10T22:57:15.932Z,17.00
2022-09-10T23:00:44.428Z,18.40
2022-09-10T23:04:11.676Z,17.00
2022-09-10T23:07:38.974Z,16.60
2022-09-10T23:11:22.927Z,16.80
2022-09-10T23:14:50.018Z,14.70
2022-09-10T23:18:19.773Z,14.20
2022-09-10T23:21:48.999Z,14.40
2022-09-10T23:25:16.293Z,13.90
2022-09-10T23:28:43.601Z,14.30
2022-09-10T23:32:13.621Z,14.80
2022-09-10T23:35:40.752Z,14.20
2022-09-10T23:39:10.344Z,14.40
2022-09-10T23:42:37.499Z,14.30
2022-09-10T23:46:05.500Z,13.50
2022-09-10T23:49:35.657Z,14.40
2022-09-10T23:53:02.700Z,13.20
2022-09-10T23:56:30.885Z,14.80
2022-09-10T23:59:58.550Z,13.20
